sensor_id;sensor_type;location;lat;lon;timestamp;P1;durP1;ratioP1;P2;durP2;ratioP2
3943;SDS011;1986;52.546;13.428;2022-10-22T00:01:41;18.17;;;17.47;;
3943;SDS011;1986;52.546;13.428;2022-10-22T00:04:08;18.77;;;17.97;;
3943;SDS011;1986;52.546;13.428;2022-10-22T00:06:34;19.00;;;18.20;;
3943;SDS011;1986;52.546;13.428;2022-10-22T00:09:01;19.20;;;18.40;;
3943;SDS011;1986;52.546;13.428;2022-10-22T00:11:29;20.10;;;19.30;;
3943;SDS011;1986;52.546;13.428;2022-10-22T00:13:56;20.30;;;19.40;;
3943;SDS011;1986;52.546;13.428;2022-10-22T00:16:25;20.07;;;19.27;;
3943;SDS011;1986;52.546;13.428;2022-10-22T00:18:51;20.40;;;19.50;;
3943;SDS011;1986;52.546;13.428;2022-10-22T00:21:18;20.90;;;20.00;;
3943;SDS011;1986;52.546;13.428;2022-10-22T00:23:45;20.70;;;19.80;;
3943;SDS011;1986;52.546;13.428;2022-10-22T00:26:12;20.70;;;19.80;;
3943;SDS011;1986;52.546;13.428;2022-10-22T00:28:39;20.83;;;19.93;;
3943;SDS011;1986;52.546;13.428;2022-10-22T00:31:06;20.50;;;19.60;;
3943;SDS011;1986;52.546;13.428;2022-10-22T00:33:36;20.90;;;20.00;;
3943;SDS011;1986;52.546;13.428;2022-10-22T00:36:03;21.30;;;20.40;;
3943;SDS011;1986;52.546;13.428;2022-10-22T00:38:30;21.40;;;20.40;;
3943;SDS011;1986;52.546;13.428;2022-10-22T00:40:56;20.67;;;19.77;;
3943;SDS011;1986;52.546;13.428;2022-10-22T00:43:23;21.07;;;20.17;;
3943;SDS011;1986;52.546;13.428;2022-10-22T00:45:50;21.00;;;20.10;;
3943;SDS011;1986;52.546;13.428;2022-10-22T00:48:18;21.77;;;20.80;;
3943;SDS011;1986;52.546;13.428;2022-10-22T00:50:49;20.67;;;19.77;;
3943;SDS011;1986;52.546;13.428;2022-10-22T00:53:20;20.33;;;19.43;;
3943;SDS011;1986;52.546;13.428;2022-10-22T00:55:51;19.77;;;18.97;;
3943;SDS011;1986;52.546;13.428;2022-10-22T00:58:19;20.10;;;19.20;;
3943;SDS011;1986;52.546;13.428;2022-10-22T01:00:48;20.40;;;19.50;;
3943;SDS011;1986;52.546;13.428;2022-10-22T01:03:15;19.40;;;18.57;;
3943;SDS011;1986;52.546;13.428;2022-10-22T01:05:43;20.63;;;19.73;;
3943;SDS011;1986;52.546;13.428;2022-10-22T01:08:20;20.10;;;19.20;;
3943;SDS011;1986;52.546;13.428;2022-10-22T01:10:56;19.87;;;19.07;;
3943;SDS011;1986;52.546;13.428;2022-10-22T01:13:35;21.00;;;20.10;;
3943;SDS011;1986;52.546;13.428;2022-10-22T01:16:10;21.20;;;20.30;;
3943;SDS011;1986;52.546;13.428;2022-10-22T01:18:44;20.57;;;19.67;;
3943;SDS011;1986;52.546;13.428;2022-10-22T01:21:19;19.90;;;19.10;;
3943;SDS011;1986;52.546;13.428;2022-10-22T01:27:13;19.70;;;18.90;;
3943;SDS011;1986;52.546;13.428;2022-10-22T01:29:49;19.60;;;18.80;;
3943;SDS011;1986;52.546;13.428;2022-10-22T01:32:19;19.13;;;18.33;;
3943;SDS011;1986;52.546;13.428;2022-10-22T01:34:49;21.20;;;20.30;;
3943;SDS011;1986;52.546;13.428;2022-10-22T01:37:19;19.30;;;18.50;;
3943;SDS011;1986;52.546;13.428;2022-10-22T01:39:48;18.80;;;18.00;;
3943;SDS011;1986;52.546;13.428;2022-10-22T01:42:20;18.07;;;17.37;;
3943;SDS011;1986;52.546;13.428;2022-10-22T01:44:50;19.93;;;19.03;;
3943;SDS011;1986;52.546;13.428;2022-10-22T01:47:20;18.50;;;17.70;;
3943;SDS011;1986;52.546;13.428;2022-10-22T01:50:13;19.07;;;18.37;;
3943;SDS011;1986;52.546;13.428;2022-10-22T01:53:11;18.43;;;17.73;;
3943;SDS011;1986;52.546;13.428;2022-10-22T01:55:50;18.83;;;18.13;;
3943;SDS011;1986;52.546;13.428;2022-10-22T01:58:24;18.33;;;17.63;;
3943;SDS011;1986;52.546;13.428;2022-10-22T02:01:03;18.23;;;17.53;;
3943;SDS011;1986;52.546;13.428;2022-10-22T02:03:43;19.00;;;18.20;;
3943;SDS011;1986;52.546;13.428;2022-10-22T02:06:18;19.20;;;18.40;;
3943;SDS011;1986;52.546;13.428;2022-10-22T02:08:52;19.53;;;18.73;;
3943;SDS011;1986;52.546;13.428;2022-10-22T02:11:25;20.00;;;19.20;;
3943;SDS011;1986;52.546;13.428;2022-10-22T02:13:52;19.90;;;19.10;;
3943;SDS011;1986;52.546;13.428;2022-10-22T02:16:26;21.80;;;20.70;;
3943;SDS011;1986;52.546;13.428;2022-10-22T02:18:55;20.57;;;19.47;;
3943;SDS011;1986;52.546;13.428;2022-10-22T02:21:25;19.53;;;18.73;;
3943;SDS011;1986;52.546;13.428;2022-10-22T02:23:53;19.50;;;18.70;;
3943;SDS011;1986;52.546;13.428;2022-10-22T02:26:21;19.00;;;18.20;;
3943;SDS011;1986;52.546;13.428;2022-10-22T02:28:55;19.30;;;18.50;;
3943;SDS011;1986;52.546;13.428;2022-10-22T02:31:30;18.80;;;18.00;;
3943;SDS011;1986;52.546;13.428;2022-10-22T02:34:01;21.23;;;20.07;;
3943;SDS011;1986;52.546;13.428;2022-10-22T02:36:34;19.00;;;18.20;;
3943;SDS011;1986;52.546;13.428;2022-10-22T02:39:06;19.00;;;18.20;;
3943;SDS011;1986;52.546;13.428;2022-10-22T02:41:35;20.27;;;19.40;;
3943;SDS011;1986;52.546;13.428;2022-10-22T02:44:06;19.63;;;18.83;;
3943;SDS011;1986;52.546;13.428;2022-10-22T02:46:35;19.73;;;18.90;;
3943;SDS011;1986;52.546;13.428;2022-10-22T02:49:02;19.40;;;18.60;;
3943;SDS011;1986;52.546;13.428;2022-10-22T02:51:29;19.33;;;18.53;;
3943;SDS011;1986;52.546;13.428;2022-10-22T02:53:56;21.20;;;20.20;;
3943;SDS011;1986;52.546;13.428;2022-10-22T02:56:23;19.30;;;18.40;;
3943;SDS011;1986;52.546;13.428;2022-10-22T02:58:50;18.37;;;17.67;;
3943;SDS011;1986;52.546;13.428;2022-10-22T03:01:17;18.30;;;17.60;;
3943;SDS011;1986;52.546;13.428;2022-10-22T03:03:45;18.90;;;18.10;;
3943;SDS011;1986;52.546;13.428;2022-10-22T03:06:12;19.00;;;18.30;;
3943;SDS011;1986;52.546;13.428;2022-10-22T03:08:39;20.53;;;19.23;;
3943;SDS011;1986;52.546;13.428;2022-10-22T03:11:08;18.23;;;17.53;;
3943;SDS011;1986;52.546;13.428;2022-10-22T03:13:36;19.00;;;18.30;;
3943;SDS011;1986;52.546;13.428;2022-10-22T03:16:02;18.50;;;17.80;;
3943;SDS011;1986;52.546;13.428;2022-10-22T03:18:30;18.60;;;17.90;;
3943;SDS011;1986;52.546;13.428;2022-10-22T03:21:00;19.83;;;19.03;;
3943;SDS011;1986;52.546;13.428;2022-10-22T03:23:32;18.73;;;18.03;;
3943;SDS011;1986;52.546;13.428;2022-10-22T03:26:00;19.27;;;18.47;;
3943;SDS011;1986;52.546;13.428;2022-10-22T03:28:32;18.90;;;18.20;;
3943;SDS011;1986;52.546;13.428;2022-10-22T03:31:00;21.23;;;19.60;;
3943;SDS011;1986;52.546;13.428;2022-10-22T03:33:27;18.77;;;18.07;;
3943;SDS011;1986;52.546;13.428;2022-10-22T03:35:54;18.33;;;17.63;;
3943;SDS011;1986;52.546;13.428;2022-10-22T03:38:24;21.20;;;20.30;;
3943;SDS011;1986;52.546;13.428;2022-10-22T03:40:52;18.93;;;18.20;;
3943;SDS011;1986;52.546;13.428;2022-10-22T03:43:18;19.17;;;18.37;;
3943;SDS011;1986;52.546;13.428;2022-10-22T03:45:45;19.50;;;18.70;;
3943;SDS011;1986;52.546;13.428;2022-10-22T03:48:12;19.90;;;19.10;;
3943;SDS011;1986;52.546;13.428;2022-10-22T03:50:39;19.43;;;18.63;;
3943;SDS011;1986;52.546;13.428;2022-10-22T03:53:07;20.20;;;19.40;;
3943;SDS011;1986;52.546;13.428;2022-10-22T03:55:39;20.10;;;19.30;;
3943;SDS011;1986;52.546;13.428;2022-10-22T03:58:06;20.43;;;19.60;;
3943;SDS011;1986;52.546;13.428;2022-10-22T04:00:34;20.70;;;19.80;;
3943;SDS011;1986;52.546;13.428;2022-10-22T04:03:01;20.00;;;19.20;;
3943;SDS011;1986;52.546;13.428;2022-10-22T04:05:33;20.43;;;19.53;;
3943;SDS011;1986;52.546;13.428;2022-10-22T04:08:00;20.40;;;19.60;;
3943;SDS011;1986;52.546;13.428;2022-10-22T04:10:27;20.57;;;19.70;;
3943;SDS011;1986;52.546;13.428;2022-10-22T04:12:57;20.20;;;19.40;;
3943;SDS011;1986;52.546;13.428;2022-10-22T04:15:24;19.93;;;19.13;;
3943;SDS011;1986;52.546;13.428;2022-10-22T04:17:54;21.10;;;20.20;;
3943;SDS011;1986;52.546;13.428;2022-10-22T04:20:21;21.23;;;20.33;;
3943;SDS011;1986;52.546;13.428;2022-10-22T04:22:47;21.13;;;20.23;;
3943;SDS011;1986;52.546;13.428;2022-10-22T04:25:14;21.40;;;20.50;;
3943;SDS011;1986;52.546;13.428;2022-10-22T04:27:41;21.30;;;20.40;;
3943;SDS011;1986;52.546;13.428;2022-10-22T04:30:10;21.67;;;20.73;;
3943;SDS011;1986;52.546;13.428;2022-10-22T04:32:38;21.50;;;20.60;;
3943;SDS011;1986;52.546;13.428;2022-10-22T04:35:05;21.77;;;20.80;;
3943;SDS011;1986;52.546;13.428;2022-10-22T04:37:32;23.27;;;22.27;;
3943;SDS011;1986;52.546;13.428;2022-10-22T04:39:59;22.23;;;21.23;;
3943;SDS011;1986;52.546;13.428;2022-10-22T04:42:26;21.53;;;20.63;;
3943;SDS011;1986;52.546;13.428;2022-10-22T04:44:53;20.90;;;20.10;;
3943;SDS011;1986;52.546;13.428;2022-10-22T04:47:21;20.20;;;19.40;;
3943;SDS011;1986;52.546;13.428;2022-10-22T04:49:48;20.37;;;19.57;;
3943;SDS011;1986;52.546;13.428;2022-10-22T04:52:15;21.50;;;20.60;;
3943;SDS011;1986;52.546;13.428;2022-10-22T04:54:41;22.33;;;21.37;;
3943;SDS011;1986;52.546;13.428;2022-10-22T04:57:08;21.43;;;20.50;;
3943;SDS011;1986;52.546;13.428;2022-10-22T04:59:35;21.90;;;20.90;;
3943;SDS011;1986;52.546;13.428;2022-10-22T05:02:02;22.27;;;21.27;;
3943;SDS011;1986;52.546;13.428;2022-10-22T05:04:30;21.57;;;20.57;;
3943;SDS011;1986;52.546;13.428;2022-10-22T05:06:57;22.00;;;21.00;;
3943;SDS011;1986;52.546;13.428;2022-10-22T05:09:24;20.93;;;20.03;;
3943;SDS011;1986;52.546;13.428;2022-10-22T05:11:51;20.60;;;19.70;;
3943;SDS011;1986;52.546;13.428;2022-10-22T05:14:19;20.87;;;19.97;;
3943;SDS011;1986;52.546;13.428;2022-10-22T05:16:47;21.10;;;20.20;;
3943;SDS011;1986;52.546;13.428;2022-10-22T05:19:15;21.50;;;20.50;;
3943;SDS011;1986;52.546;13.428;2022-10-22T05:21:46;21.50;;;20.60;;
3943;SDS011;1986;52.546;13.428;2022-10-22T05:24:13;21.27;;;20.27;;
3943;SDS011;1986;52.546;13.428;2022-10-22T05:26:40;21.70;;;20.70;;
3943;SDS011;1986;52.546;13.428;2022-10-22T05:29:09;21.13;;;20.23;;
3943;SDS011;1986;52.546;13.428;2022-10-22T05:31:36;21.73;;;20.73;;
3943;SDS011;1986;52.546;13.428;2022-10-22T05:34:04;22.10;;;21.10;;
3943;SDS011;1986;52.546;13.428;2022-10-22T05:36:31;21.90;;;20.90;;
3943;SDS011;1986;52.546;13.428;2022-10-22T05:39:00;21.97;;;20.97;;
3943;SDS011;1986;52.546;13.428;2022-10-22T05:41:27;21.93;;;20.93;;
3943;SDS011;1986;52.546;13.428;2022-10-22T05:43:55;22.50;;;21.40;;
3943;SDS011;1986;52.546;13.428;2022-10-22T05:46:24;21.93;;;20.93;;
3943;SDS011;1986;52.546;13.428;2022-10-22T05:48:53;21.87;;;20.87;;
3943;SDS011;1986;52.546;13.428;2022-10-22T05:51:20;22.30;;;21.30;;
3943;SDS011;1986;52.546;13.428;2022-10-22T05:53:50;22.30;;;21.30;;
3943;SDS011;1986;52.546;13.428;2022-10-22T05:56:23;22.47;;;21.47;;
3943;SDS011;1986;52.546;13.428;2022-10-22T05:58:50;22.17;;;21.27;;
3943;SDS011;1986;52.546;13.428;2022-10-22T06:01:18;21.63;;;20.73;;
3943;SDS011;1986;52.546;13.428;2022-10-22T06:03:47;22.13;;;21.13;;
3943;SDS011;1986;52.546;13.428;2022-10-22T06:06:16;20.87;;;19.97;;
3943;SDS011;1986;52.546;13.428;2022-10-22T06:08:46;21.47;;;20.57;;
3943;SDS011;1986;52.546;13.428;2022-10-22T06:11:13;21.20;;;20.30;;
3943;SDS011;1986;52.546;13.428;2022-10-22T06:13:46;21.90;;;21.00;;
3943;SDS011;1986;52.546;13.428;2022-10-22T06:16:14;22.20;;;21.20;;
3943;SDS011;1986;52.546;13.428;2022-10-22T06:18:41;21.70;;;20.80;;
3943;SDS011;1986;52.546;13.428;2022-10-22T06:21:12;21.90;;;21.00;;
3943;SDS011;1986;52.546;13.428;2022-10-22T06:23:40;21.60;;;20.70;;
3943;SDS011;1986;52.546;13.428;2022-10-22T06:26:08;21.67;;;20.77;;
3943;SDS011;1986;52.546;13.428;2022-10-22T06:28:35;21.90;;;20.90;;
3943;SDS011;1986;52.546;13.428;2022-10-22T06:31:04;21.80;;;20.90;;
3943;SDS011;1986;52.546;13.428;2022-10-22T06:33:31;21.80;;;20.90;;
3943;SDS011;1986;52.546;13.428;2022-10-22T06:36:03;20.43;;;19.63;;
3943;SDS011;1986;52.546;13.428;2022-10-22T06:38:31;20.70;;;19.90;;
3943;SDS011;1986;52.546;13.428;2022-10-22T06:41:01;20.30;;;19.50;;
3943;SDS011;1986;52.546;13.428;2022-10-22T06:43:31;19.90;;;19.20;;
3943;SDS011;1986;52.546;13.428;2022-10-22T06:45:58;20.10;;;19.30;;
3943;SDS011;1986;52.546;13.428;2022-10-22T06:48:27;20.50;;;19.70;;
3943;SDS011;1986;52.546;13.428;2022-10-22T06:50:54;21.70;;;20.87;;
3943;SDS011;1986;52.546;13.428;2022-10-22T06:53:31;19.83;;;19.13;;
3943;SDS011;1986;52.546;13.428;2022-10-22T06:55:58;20.00;;;19.30;;
3943;SDS011;1986;52.546;13.428;2022-10-22T06:58:29;19.80;;;19.10;;
3943;SDS011;1986;52.546;13.428;2022-10-22T07:00:59;20.43;;;19.70;;
3943;SDS011;1986;52.546;13.428;2022-10-22T07:03:29;20.40;;;19.70;;
3943;SDS011;1986;52.546;13.428;2022-10-22T07:05:58;20.00;;;19.30;;
3943;SDS011;1986;52.546;13.428;2022-10-22T07:08:25;20.43;;;19.40;;
3943;SDS011;1986;52.546;13.428;2022-10-22T07:10:53;18.90;;;18.30;;
3943;SDS011;1986;52.546;13.428;2022-10-22T07:13:21;19.87;;;19.23;;
3943;SDS011;1986;52.546;13.428;2022-10-22T07:15:51;20.00;;;18.97;;
3943;SDS011;1986;52.546;13.428;2022-10-22T07:18:19;18.60;;;18.00;;
3943;SDS011;1986;52.546;13.428;2022-10-22T07:20:48;20.07;;;18.87;;
3943;SDS011;1986;52.546;13.428;2022-10-22T07:23:15;17.90;;;17.40;;
3943;SDS011;1986;52.546;13.428;2022-10-22T07:25:42;17.80;;;17.30;;
3943;SDS011;1986;52.546;13.428;2022-10-22T07:28:09;17.20;;;16.70;;
3943;SDS011;1986;52.546;13.428;2022-10-22T07:30:37;17.33;;;16.83;;
3943;SDS011;1986;52.546;13.428;2022-10-22T07:33:06;16.70;;;16.20;;
3943;SDS011;1986;52.546;13.428;2022-10-22T07:35:33;17.83;;;17.23;;
3943;SDS011;1986;52.546;13.428;2022-10-22T07:38:04;16.13;;;15.50;;
3943;SDS011;1986;52.546;13.428;2022-10-22T07:40:31;14.03;;;13.73;;
3943;SDS011;1986;52.546;13.428;2022-10-22T07:43:02;12.60;;;12.30;;
3943;SDS011;1986;52.546;13.428;2022-10-22T07:45:29;12.73;;;12.30;;
3943;SDS011;1986;52.546;13.428;2022-10-22T07:47:56;15.80;;;14.87;;
3943;SDS011;1986;52.546;13.428;2022-10-22T07:50:24;9.07;;;8.93;;
3943;SDS011;1986;52.546;13.428;2022-10-22T07:52:51;8.43;;;8.33;;
3943;SDS011;1986;52.546;13.428;2022-10-22T07:55:19;7.67;;;7.47;;
3943;SDS011;1986;52.546;13.428;2022-10-22T07:57:46;9.10;;;8.90;;
3943;SDS011;1986;52.546;13.428;2022-10-22T08:00:14;8.10;;;7.00;;
3943;SDS011;1986;52.546;13.428;2022-10-22T08:02:41;6.83;;;6.73;;
3943;SDS011;1986;52.546;13.428;2022-10-22T08:05:08;5.87;;;5.77;;
3943;SDS011;1986;52.546;13.428;2022-10-22T08:07:35;5.60;;;5.50;;
3943;SDS011;1986;52.546;13.428;2022-10-22T08:10:02;7.70;;;7.13;;
3943;SDS011;1986;52.546;13.428;2022-10-22T08:12:30;7.20;;;7.10;;
3943;SDS011;1986;52.546;13.428;2022-10-22T08:14:57;8.67;;;8.30;;
3943;SDS011;1986;52.546;13.428;2022-10-22T08:17:26;6.90;;;5.13;;
3943;SDS011;1986;52.546;13.428;2022-10-22T08:19:55;4.20;;;4.20;;
3943;SDS011;1986;52.546;13.428;2022-10-22T08:22:21;5.87;;;5.67;;
3943;SDS011;1986;52.546;13.428;2022-10-22T08:24:48;9.93;;;8.00;;
3943;SDS011;1986;52.546;13.428;2022-10-22T08:27:15;4.67;;;4.20;;
3943;SDS011;1986;52.546;13.428;2022-10-22T08:29:43;3.30;;;3.10;;
3943;SDS011;1986;52.546;13.428;2022-10-22T08:32:13;6.33;;;6.03;;
3943;SDS011;1986;52.546;13.428;2022-10-22T08:34:41;4.80;;;4.60;;
3943;SDS011;1986;52.546;13.428;2022-10-22T08:37:07;3.90;;;3.70;;
3943;SDS011;1986;52.546;13.428;2022-10-22T08:39:41;3.40;;;3.30;;
3943;SDS011;1986;52.546;13.428;2022-10-22T08:42:16;12.77;;;3.93;;
3943;SDS011;1986;52.546;13.428;2022-10-22T08:45:05;2.43;;;2.30;;
3943;SDS011;1986;52.546;13.428;2022-10-22T08:47:42;5.27;;;4.90;;
3943;SDS011;1986;52.546;13.428;2022-10-22T08:50:26;3.63;;;2.93;;
3943;SDS011;1986;52.546;13.428;2022-10-22T08:53:11;3.70;;;3.40;;
3943;SDS011;1986;52.546;13.428;2022-10-22T08:55:40;4.67;;;4.37;;
3943;SDS011;1986;52.546;13.428;2022-10-22T08:58:09;2.17;;;2.07;;
3943;SDS011;1986;52.546;13.428;2022-10-22T09:00:49;6.07;;;5.53;;
3943;SDS011;1986;52.546;13.428;2022-10-22T09:03:23;5.70;;;3.87;;
3943;SDS011;1986;52.546;13.428;2022-10-22T09:05:59;2.73;;;2.63;;
3943;SDS011;1986;52.546;13.428;2022-10-22T09:08:30;5.03;;;4.53;;
3943;SDS011;1986;52.546;13.428;2022-10-22T09:11:00;2.70;;;2.60;;
3943;SDS011;1986;52.546;13.428;2022-10-22T09:13:32;3.47;;;3.33;;
3943;SDS011;1986;52.546;13.428;2022-10-22T09:16:09;3.50;;;3.30;;
3943;SDS011;1986;52.546;13.428;2022-10-22T09:18:40;2.73;;;2.53;;
3943;SDS011;1986;52.546;13.428;2022-10-22T09:21:14;3.80;;;3.67;;
3943;SDS011;1986;52.546;13.428;2022-10-22T09:23:53;3.73;;;3.63;;
3943;SDS011;1986;52.546;13.428;2022-10-22T09:26:26;2.27;;;2.17;;
3943;SDS011;1986;52.546;13.428;2022-10-22T09:28:53;3.67;;;3.47;;
3943;SDS011;1986;52.546;13.428;2022-10-22T09:31:26;8.70;;;4.70;;
3943;SDS011;1986;52.546;13.428;2022-10-22T09:33:56;6.00;;;5.07;;
3943;SDS011;1986;52.546;13.428;2022-10-22T09:36:23;4.30;;;3.93;;
3943;SDS011;1986;52.546;13.428;2022-10-22T09:38:54;2.00;;;2.00;;
3943;SDS011;1986;52.546;13.428;2022-10-22T09:41:23;2.00;;;2.00;;
3943;SDS011;1986;52.546;13.428;2022-10-22T09:43:53;2.80;;;2.73;;
3943;SDS011;1986;52.546;13.428;2022-10-22T09:46:23;5.13;;;4.30;;
3943;SDS011;1986;52.546;13.428;2022-10-22T09:49:01;3.50;;;3.30;;
3943;SDS011;1986;52.546;13.428;2022-10-22T09:51:35;3.00;;;3.00;;
3943;SDS011;1986;52.546;13.428;2022-10-22T09:54:13;4.77;;;4.50;;
3943;SDS011;1986;52.546;13.428;2022-10-22T09:56:49;3.60;;;3.47;;
3943;SDS011;1986;52.546;13.428;2022-10-22T09:59:29;9.20;;;7.30;;
3943;SDS011;1986;52.546;13.428;2022-10-22T10:01:58;12.20;;;5.07;;
3943;SDS011;1986;52.546;13.428;2022-10-22T10:04:39;6.77;;;6.27;;
3943;SDS011;1986;52.546;13.428;2022-10-22T10:07:14;13.33;;;6.90;;
3943;SDS011;1986;52.546;13.428;2022-10-22T10:09:42;7.27;;;6.40;;
3943;SDS011;1986;52.546;13.428;2022-10-22T10:12:20;5.00;;;4.77;;
3943;SDS011;1986;52.546;13.428;2022-10-22T10:14:56;7.87;;;6.30;;
3943;SDS011;1986;52.546;13.428;2022-10-22T10:17:32;5.40;;;4.97;;
3943;SDS011;1986;52.546;13.428;2022-10-22T10:20:15;5.13;;;4.87;;
3943;SDS011;1986;52.546;13.428;2022-10-22T10:22:54;19.30;;;6.97;;
3943;SDS011;1986;52.546;13.428;2022-10-22T10:25:40;4.93;;;4.53;;
3943;SDS011;1986;52.546;13.428;2022-10-22T10:28:20;5.43;;;4.47;;
3943;SDS011;1986;52.546;13.428;2022-10-22T10:31:02;4.87;;;4.57;;
3943;SDS011;1986;52.546;13.428;2022-10-22T10:33:43;5.57;;;5.10;;
3943;SDS011;1986;52.546;13.428;2022-10-22T10:36:26;9.43;;;5.30;;
3943;SDS011;1986;52.546;13.428;2022-10-22T10:39:07;4.30;;;4.10;;
3943;SDS011;1986;52.546;13.428;2022-10-22T10:41:43;2.40;;;2.40;;
3943;SDS011;1986;52.546;13.428;2022-10-22T10:44:36;5.83;;;5.63;;
3943;SDS011;1986;52.546;13.428;2022-10-22T10:47:20;7.23;;;6.07;;
3943;SDS011;1986;52.546;13.428;2022-10-22T10:50:04;9.27;;;6.83;;
3943;SDS011;1986;52.546;13.428;2022-10-22T10:52:48;3.13;;;3.13;;
3943;SDS011;1986;52.546;13.428;2022-10-22T10:55:21;4.50;;;4.30;;
3943;SDS011;1986;52.546;13.428;2022-10-22T10:57:55;7.07;;;6.00;;
3943;SDS011;1986;52.546;13.428;2022-10-22T11:00:31;4.93;;;4.70;;
3943;SDS011;1986;52.546;13.428;2022-10-22T11:03:28;8.03;;;7.57;;
3943;SDS011;1986;52.546;13.428;2022-10-22T11:06:06;4.00;;;3.90;;
3943;SDS011;1986;52.546;13.428;2022-10-22T11:08:41;5.83;;;5.70;;
3943;SDS011;1986;52.546;13.428;2022-10-22T11:11:15;3.80;;;3.70;;
3943;SDS011;1986;52.546;13.428;2022-10-22T11:13:48;7.97;;;7.07;;
3943;SDS011;1986;52.546;13.428;2022-10-22T11:16:20;6.17;;;5.90;;
3943;SDS011;1986;52.546;13.428;2022-10-22T11:18:54;21.33;;;7.43;;
3943;SDS011;1986;52.546;13.428;2022-10-22T11:21:30;8.57;;;8.23;;
3943;SDS011;1986;52.546;13.428;2022-10-22T11:24:14;9.03;;;8.33;;
3943;SDS011;1986;52.546;13.428;2022-10-22T11:26:46;7.63;;;6.83;;
3943;SDS011;1986;52.546;13.428;2022-10-22T11:29:18;7.00;;;6.60;;
3943;SDS011;1986;52.546;13.428;2022-10-22T11:31:51;8.23;;;7.50;;
3943;SDS011;1986;52.546;13.428;2022-10-22T11:34:20;9.20;;;8.50;;
3943;SDS011;1986;52.546;13.428;2022-10-22T11:36:52;8.90;;;8.13;;
3943;SDS011;1986;52.546;13.428;2022-10-22T11:42:09;6.90;;;6.70;;
3943;SDS011;1986;52.546;13.428;2022-10-22T11:44:57;7.70;;;7.23;;
3943;SDS011;1986;52.546;13.428;2022-10-22T11:47:26;8.43;;;8.23;;
3943;SDS011;1986;52.546;13.428;2022-10-22T11:50:14;9.33;;;8.93;;
3943;SDS011;1986;52.546;13.428;2022-10-22T11:52:58;8.20;;;8.00;;
3943;SDS011;1986;52.546;13.428;2022-10-22T11:55:41;6.90;;;6.80;;
3943;SDS011;1986;52.546;13.428;2022-10-22T11:58:27;13.10;;;10.97;;
3943;SDS011;1986;52.546;13.428;2022-10-22T12:01:15;8.07;;;7.87;;
3943;SDS011;1986;52.546;13.428;2022-10-22T12:03:50;9.30;;;9.00;;
3943;SDS011;1986;52.546;13.428;2022-10-22T12:06:20;9.10;;;8.90;;
3943;SDS011;1986;52.546;13.428;2022-10-22T12:08:51;11.37;;;10.77;;
3943;SDS011;1986;52.546;13.428;2022-10-22T12:11:27;13.57;;;12.67;;
3943;SDS011;1986;52.546;13.428;2022-10-22T12:14:10;10.80;;;10.10;;
3943;SDS011;1986;52.546;13.428;2022-10-22T12:16:44;9.47;;;9.13;;
3943;SDS011;1986;52.546;13.428;2022-10-22T12:19:13;10.13;;;9.93;;
3943;SDS011;1986;52.546;13.428;2022-10-22T12:21:43;12.70;;;11.90;;
3943;SDS011;1986;52.546;13.428;2022-10-22T12:24:14;9.90;;;9.70;;
3943;SDS011;1986;52.546;13.428;2022-10-22T12:26:46;9.80;;;9.60;;
3943;SDS011;1986;52.546;13.428;2022-10-22T12:29:17;13.77;;;12.60;;
3943;SDS011;1986;52.546;13.428;2022-10-22T12:31:46;13.40;;;12.60;;
3943;SDS011;1986;52.546;13.428;2022-10-22T12:34:14;13.10;;;12.60;;
3943;SDS011;1986;52.546;13.428;2022-10-22T12:36:43;12.13;;;11.73;;
3943;SDS011;1986;52.546;13.428;2022-10-22T12:39:14;12.67;;;11.97;;
3943;SDS011;1986;52.546;13.428;2022-10-22T12:41:43;15.57;;;14.60;;
3943;SDS011;1986;52.546;13.428;2022-10-22T12:44:12;11.67;;;11.37;;
3943;SDS011;1986;52.546;13.428;2022-10-22T12:46:40;10.07;;;9.77;;
3943;SDS011;1986;52.546;13.428;2022-10-22T12:49:11;9.17;;;8.97;;
3943;SDS011;1986;52.546;13.428;2022-10-22T12:51:42;13.67;;;12.90;;
3943;SDS011;1986;52.546;13.428;2022-10-22T12:54:15;10.53;;;10.13;;
3943;SDS011;1986;52.546;13.428;2022-10-22T12:56:49;11.87;;;11.47;;
3943;SDS011;1986;52.546;13.428;2022-10-22T12:59:20;11.13;;;10.83;;
3943;SDS011;1986;52.546;13.428;2022-10-22T13:01:51;11.20;;;10.90;;
3943;SDS011;1986;52.546;13.428;2022-10-22T13:04:33;12.47;;;12.10;;
3943;SDS011;1986;52.546;13.428;2022-10-22T13:07:03;13.33;;;12.63;;
3943;SDS011;1986;52.546;13.428;2022-10-22T13:09:43;12.87;;;12.33;;
3943;SDS011;1986;52.546;13.428;2022-10-22T13:12:12;12.10;;;11.80;;
3943;SDS011;1986;52.546;13.428;2022-10-22T13:14:44;15.33;;;14.73;;
3943;SDS011;1986;52.546;13.428;2022-10-22T13:17:13;15.40;;;14.57;;
3943;SDS011;1986;52.546;13.428;2022-10-22T13:19:45;15.00;;;14.10;;
3943;SDS011;1986;52.546;13.428;2022-10-22T13:22:23;13.73;;;13.33;;
3943;SDS011;1986;52.546;13.428;2022-10-22T13:24:51;14.37;;;13.77;;
3943;SDS011;1986;52.546;13.428;2022-10-22T13:27:20;13.83;;;13.23;;
3943;SDS011;1986;52.546;13.428;2022-10-22T13:29:51;14.77;;;14.17;;
3943;SDS011;1986;52.546;13.428;2022-10-22T13:32:26;13.70;;;13.30;;
3943;SDS011;1986;52.546;13.428;2022-10-22T13:37:25;13.60;;;13.20;;
3943;SDS011;1986;52.546;13.428;2022-10-22T13:39:55;14.60;;;14.10;;
3943;SDS011;1986;52.546;13.428;2022-10-22T13:42:22;14.17;;;13.67;;
3943;SDS011;1986;52.546;13.428;2022-10-22T13:44:51;15.50;;;14.90;;
3943;SDS011;1986;52.546;13.428;2022-10-22T13:47:23;14.93;;;14.33;;
3943;SDS011;1986;52.546;13.428;2022-10-22T13:49:52;15.47;;;14.87;;
3943;SDS011;1986;52.546;13.428;2022-10-22T13:52:26;17.33;;;16.47;;
3943;SDS011;1986;52.546;13.428;2022-10-22T13:54:57;15.20;;;14.70;;
3943;SDS011;1986;52.546;13.428;2022-10-22T13:57:24;14.70;;;14.20;;
3943;SDS011;1986;52.546;13.428;2022-10-22T13:59:53;14.73;;;14.23;;
3943;SDS011;1986;52.546;13.428;2022-10-22T14:02:22;16.03;;;15.33;;
3943;SDS011;1986;52.546;13.428;2022-10-22T14:04:49;15.00;;;14.40;;
3943;SDS011;1986;52.546;13.428;2022-10-22T14:07:18;15.03;;;14.53;;
3943;SDS011;1986;52.546;13.428;2022-10-22T14:09:46;14.80;;;14.30;;
3943;SDS011;1986;52.546;13.428;2022-10-22T14:12:15;15.27;;;14.77;;
3943;SDS011;1986;52.546;13.428;2022-10-22T14:14:42;14.20;;;13.60;;
3943;SDS011;1986;52.546;13.428;2022-10-22T14:17:12;14.00;;;13.60;;
3943;SDS011;1986;52.546;13.428;2022-10-22T14:19:42;15.90;;;14.60;;
3943;SDS011;1986;52.546;13.428;2022-10-22T14:22:13;14.57;;;13.97;;
3943;SDS011;1986;52.546;13.428;2022-10-22T14:24:41;14.27;;;13.77;;
3943;SDS011;1986;52.546;13.428;2022-10-22T14:27:09;14.60;;;14.10;;
3943;SDS011;1986;52.546;13.428;2022-10-22T14:29:38;14.10;;;13.60;;
3943;SDS011;1986;52.546;13.428;2022-10-22T14:32:27;14.03;;;13.53;;
3943;SDS011;1986;52.546;13.428;2022-10-22T14:34:56;14.50;;;14.00;;
3943;SDS011;1986;52.546;13.428;2022-10-22T14:37:25;15.63;;;14.97;;
3943;SDS011;1986;52.546;13.428;2022-10-22T14:39:52;15.00;;;14.30;;
3943;SDS011;1986;52.546;13.428;2022-10-22T14:42:25;14.63;;;13.93;;
3943;SDS011;1986;52.546;13.428;2022-10-22T14:44:53;15.30;;;14.53;;
3943;SDS011;1986;52.546;13.428;2022-10-22T14:47:23;15.30;;;14.60;;
3943;SDS011;1986;52.546;13.428;2022-10-22T14:49:51;14.67;;;14.17;;
3943;SDS011;1986;52.546;13.428;2022-10-22T14:52:18;15.70;;;15.07;;
3943;SDS011;1986;52.546;13.428;2022-10-22T14:54:45;14.67;;;14.17;;
3943;SDS011;1986;52.546;13.428;2022-10-22T14:57:12;15.00;;;14.50;;
3943;SDS011;1986;52.546;13.428;2022-10-22T14:59:40;15.33;;;14.83;;
3943;SDS011;1986;52.546;13.428;2022-10-22T15:02:09;15.73;;;14.97;;
3943;SDS011;1986;52.546;13.428;2022-10-22T15:04:38;14.40;;;13.90;;
3943;SDS011;1986;52.546;13.428;2022-10-22T15:07:06;15.33;;;14.53;;
3943;SDS011;1986;52.546;13.428;2022-10-22T15:09:33;15.27;;;14.57;;
3943;SDS011;1986;52.546;13.428;2022-10-22T15:12:02;15.10;;;14.60;;